SARM/MCS METAR and TAF weather

Enter ICAO airport designator
Station Type Date Time Source
SARM METAR 2020/02/14 09:24 UTC NOAA

SARM 140924Z 34008KT 6000 -TSRA BKN005 OVC035 FEW050CB 23/22 Q1010


Station Type Date Time Source
SARM Decoded METAR 2020/02/14 09:24 UTC NOAA

Monte Caseros Aerodrome, Argentina (SARM) 30-16S 057-39W 54M
Feb 14, 2020 - 04:24 AM EST / 2020.02.14 0924 UTC
Wind: from the NNW (340 degrees) at 9 MPH (8 KT):0
Visibility: 3 mile(s):0
Sky conditions: overcast
Weather: light rain with thunder; Cumulonimbus clouds observed
Temperature: 73 F (23 C)
Dew Point: 71 F (22 C)
Relative Humidity: 94%
Pressure (altimeter): 29.83 in. Hg (1010 hPa)
ob: SARM 140924Z 34008KT 6000 -TSRA BKN005 OVC035 FEW050CB 23/22 Q1010
cycle: 9

Station Type Date Time Source
SARM TAF UTC NOAA

Error!

Example: see airport list